Jersey, United Kingdom
Current Conditions -  °F | °C
As of 11:50 PM on Monday 24 Nov 2014 (Local Time) from EGJJ Reporting Station
Broken Clouds Broken Clouds  
Wind Chill: 42°   Ceiling: 2600
Heat Index: 48°   Visibility: 6mi
Dew Point: 46°   Wind: 15mph
Humidity: 93%   Direction: 70°ENE
Pressure: 30.21"   Gusts: NA
Location:  49.21°N, 2.13°W
Report Text: EGJJ 242250Z 07013KT 9999 FEW005 SCT008 BKN026 09/08 Q1023 TEMPO 5000 RA BKN003
Loading
Personal Weather Stations






























Interactive Weather Map New forecast layout! Learn more

10-Day Weather Forecast

Advertisements
Track Severe Weather on mobile